sensor_id;sensor_type;location;lat;lon;timestamp;P1;durP1;ratioP1;P2;durP2;ratioP2
7460;SDS011;6757;52.258;12.840;2022-10-18T00:00:46;9.93;;;4.20;;
7460;SDS011;6757;52.258;12.840;2022-10-18T00:03:13;13.32;;;5.07;;
7460;SDS011;6757;52.258;12.840;2022-10-18T00:05:40;12.88;;;4.60;;
7460;SDS011;6757;52.258;12.840;2022-10-18T00:08:07;13.18;;;4.50;;
7460;SDS011;6757;52.258;12.840;2022-10-18T00:10:34;13.85;;;4.72;;
7460;SDS011;6757;52.258;12.840;2022-10-18T00:13:01;12.02;;;4.20;;
7460;SDS011;6757;52.258;12.840;2022-10-18T00:15:29;10.15;;;3.92;;
7460;SDS011;6757;52.258;12.840;2022-10-18T00:17:56;11.32;;;4.35;;
7460;SDS011;6757;52.258;12.840;2022-10-18T00:20:23;12.73;;;4.07;;
7460;SDS011;6757;52.258;12.840;2022-10-18T00:22:51;11.95;;;4.10;;
7460;SDS011;6757;52.258;12.840;2022-10-18T00:25:18;11.60;;;3.72;;
7460;SDS011;6757;52.258;12.840;2022-10-18T00:27:45;9.55;;;4.13;;
7460;SDS011;6757;52.258;12.840;2022-10-18T00:30:12;9.85;;;4.07;;
7460;SDS011;6757;52.258;12.840;2022-10-18T00:32:40;10.43;;;3.70;;
7460;SDS011;6757;52.258;12.840;2022-10-18T00:35:08;8.73;;;3.65;;
7460;SDS011;6757;52.258;12.840;2022-10-18T00:37:35;9.75;;;3.60;;
7460;SDS011;6757;52.258;12.840;2022-10-18T00:40:02;11.50;;;4.18;;
7460;SDS011;6757;52.258;12.840;2022-10-18T00:42:31;9.43;;;3.50;;
7460;SDS011;6757;52.258;12.840;2022-10-18T00:47:47;9.07;;;3.17;;
7460;SDS011;6757;52.258;12.840;2022-10-18T00:50:19;11.23;;;3.60;;
7460;SDS011;6757;52.258;12.840;2022-10-18T00:52:48;8.73;;;3.15;;
7460;SDS011;6757;52.258;12.840;2022-10-18T00:57:46;6.50;;;2.85;;
7460;SDS011;6757;52.258;12.840;2022-10-18T01:00:15;9.35;;;3.33;;
7460;SDS011;6757;52.258;12.840;2022-10-18T01:02:43;9.77;;;4.07;;
7460;SDS011;6757;52.258;12.840;2022-10-18T01:05:13;8.68;;;3.33;;
7460;SDS011;6757;52.258;12.840;2022-10-18T01:07:52;10.20;;;3.60;;
7460;SDS011;6757;52.258;12.840;2022-10-18T01:10:43;9.02;;;3.30;;
7460;SDS011;6757;52.258;12.840;2022-10-18T01:13:21;9.52;;;3.35;;
7460;SDS011;6757;52.258;12.840;2022-10-18T01:16:02;7.65;;;3.10;;
7460;SDS011;6757;52.258;12.840;2022-10-18T01:18:36;7.53;;;3.17;;
7460;SDS011;6757;52.258;12.840;2022-10-18T01:21:16;8.55;;;3.50;;
7460;SDS011;6757;52.258;12.840;2022-10-18T01:26:55;9.25;;;3.63;;
7460;SDS011;6757;52.258;12.840;2022-10-18T01:29:40;9.60;;;3.10;;
7460;SDS011;6757;52.258;12.840;2022-10-18T01:32:20;7.90;;;3.17;;
7460;SDS011;6757;52.258;12.840;2022-10-18T01:34:54;9.55;;;3.50;;
7460;SDS011;6757;52.258;12.840;2022-10-18T01:37:25;8.50;;;3.45;;
7460;SDS011;6757;52.258;12.840;2022-10-18T01:39:54;10.02;;;3.80;;
7460;SDS011;6757;52.258;12.840;2022-10-18T01:42:27;10.43;;;3.70;;
7460;SDS011;6757;52.258;12.840;2022-10-18T01:44:54;11.43;;;3.67;;
7460;SDS011;6757;52.258;12.840;2022-10-18T01:47:23;12.07;;;3.88;;
7460;SDS011;6757;52.258;12.840;2022-10-18T01:49:55;10.10;;;3.72;;
7460;SDS011;6757;52.258;12.840;2022-10-18T01:52:24;11.70;;;4.47;;
7460;SDS011;6757;52.258;12.840;2022-10-18T01:54:51;9.15;;;3.60;;
7460;SDS011;6757;52.258;12.840;2022-10-18T01:57:21;6.15;;;3.08;;
7460;SDS011;6757;52.258;12.840;2022-10-18T01:59:57;8.25;;;3.20;;
7460;SDS011;6757;52.258;12.840;2022-10-18T02:02:37;9.25;;;3.78;;
7460;SDS011;6757;52.258;12.840;2022-10-18T02:05:12;8.35;;;3.40;;
7460;SDS011;6757;52.258;12.840;2022-10-18T02:07:47;7.85;;;3.10;;
7460;SDS011;6757;52.258;12.840;2022-10-18T02:10:19;10.50;;;3.55;;
7460;SDS011;6757;52.258;12.840;2022-10-18T02:12:54;9.25;;;3.33;;
7460;SDS011;6757;52.258;12.840;2022-10-18T02:15:24;7.15;;;2.95;;
7460;SDS011;6757;52.258;12.840;2022-10-18T02:17:57;8.93;;;3.65;;
7460;SDS011;6757;52.258;12.840;2022-10-18T02:20:25;7.97;;;3.20;;
7460;SDS011;6757;52.258;12.840;2022-10-18T02:22:56;8.00;;;3.55;;
7460;SDS011;6757;52.258;12.840;2022-10-18T02:25:26;7.65;;;3.13;;
7460;SDS011;6757;52.258;12.840;2022-10-18T02:27:55;9.13;;;2.97;;
7460;SDS011;6757;52.258;12.840;2022-10-18T02:30:23;8.57;;;3.55;;
7460;SDS011;6757;52.258;12.840;2022-10-18T02:33:00;11.27;;;3.80;;
7460;SDS011;6757;52.258;12.840;2022-10-18T02:35:35;7.20;;;2.88;;
7460;SDS011;6757;52.258;12.840;2022-10-18T02:38:06;8.30;;;3.28;;
7460;SDS011;6757;52.258;12.840;2022-10-18T02:40:34;7.93;;;3.30;;
7460;SDS011;6757;52.258;12.840;2022-10-18T02:43:02;8.85;;;3.55;;
7460;SDS011;6757;52.258;12.840;2022-10-18T02:45:31;7.22;;;2.92;;
7460;SDS011;6757;52.258;12.840;2022-10-18T02:48:00;8.10;;;3.22;;
7460;SDS011;6757;52.258;12.840;2022-10-18T02:50:27;8.45;;;2.97;;
7460;SDS011;6757;52.258;12.840;2022-10-18T02:52:54;9.48;;;3.00;;
7460;SDS011;6757;52.258;12.840;2022-10-18T02:55:20;7.72;;;3.10;;
7460;SDS011;6757;52.258;12.840;2022-10-18T02:57:47;7.05;;;3.20;;
7460;SDS011;6757;52.258;12.840;2022-10-18T03:00:14;9.60;;;3.67;;
7460;SDS011;6757;52.258;12.840;2022-10-18T03:02:41;6.40;;;3.00;;
7460;SDS011;6757;52.258;12.840;2022-10-18T03:05:09;10.05;;;3.97;;
7460;SDS011;6757;52.258;12.840;2022-10-18T03:07:36;10.82;;;3.70;;
7460;SDS011;6757;52.258;12.840;2022-10-18T03:10:03;9.15;;;3.38;;
7460;SDS011;6757;52.258;12.840;2022-10-18T03:12:31;10.82;;;4.03;;
7460;SDS011;6757;52.258;12.840;2022-10-18T03:14:58;9.82;;;4.00;;
7460;SDS011;6757;52.258;12.840;2022-10-18T03:17:25;9.88;;;3.60;;
7460;SDS011;6757;52.258;12.840;2022-10-18T03:19:52;10.43;;;3.78;;
7460;SDS011;6757;52.258;12.840;2022-10-18T03:22:20;9.45;;;3.65;;
7460;SDS011;6757;52.258;12.840;2022-10-18T03:24:49;9.70;;;3.97;;
7460;SDS011;6757;52.258;12.840;2022-10-18T03:27:16;11.70;;;3.63;;
7460;SDS011;6757;52.258;12.840;2022-10-18T03:29:42;8.95;;;3.78;;
7460;SDS011;6757;52.258;12.840;2022-10-18T03:32:09;12.07;;;4.35;;
7460;SDS011;6757;52.258;12.840;2022-10-18T03:34:36;8.73;;;3.28;;
7460;SDS011;6757;52.258;12.840;2022-10-18T03:37:03;10.40;;;3.53;;
7460;SDS011;6757;52.258;12.840;2022-10-18T03:39:31;10.40;;;3.92;;
7460;SDS011;6757;52.258;12.840;2022-10-18T03:41:58;9.35;;;3.53;;
7460;SDS011;6757;52.258;12.840;2022-10-18T03:44:25;7.28;;;3.33;;
7460;SDS011;6757;52.258;12.840;2022-10-18T03:46:52;9.57;;;4.15;;
7460;SDS011;6757;52.258;12.840;2022-10-18T03:49:18;10.10;;;4.10;;
7460;SDS011;6757;52.258;12.840;2022-10-18T03:51:45;8.77;;;3.30;;
7460;SDS011;6757;52.258;12.840;2022-10-18T03:54:12;12.73;;;3.80;;
7460;SDS011;6757;52.258;12.840;2022-10-18T03:56:40;10.30;;;3.63;;
7460;SDS011;6757;52.258;12.840;2022-10-18T03:59:07;9.85;;;3.78;;
7460;SDS011;6757;52.258;12.840;2022-10-18T04:01:34;11.68;;;3.60;;
7460;SDS011;6757;52.258;12.840;2022-10-18T04:04:01;10.40;;;3.72;;
7460;SDS011;6757;52.258;12.840;2022-10-18T04:06:28;9.38;;;3.63;;
7460;SDS011;6757;52.258;12.840;2022-10-18T04:08:56;9.30;;;3.33;;
7460;SDS011;6757;52.258;12.840;2022-10-18T04:11:23;9.20;;;3.40;;
7460;SDS011;6757;52.258;12.840;2022-10-18T04:13:51;10.45;;;3.85;;
7460;SDS011;6757;52.258;12.840;2022-10-18T04:16:18;8.75;;;3.83;;
7460;SDS011;6757;52.258;12.840;2022-10-18T04:18:45;7.05;;;2.92;;
7460;SDS011;6757;52.258;12.840;2022-10-18T04:21:11;11.38;;;4.25;;
7460;SDS011;6757;52.258;12.840;2022-10-18T04:23:38;7.90;;;3.35;;
7460;SDS011;6757;52.258;12.840;2022-10-18T04:26:05;9.68;;;3.22;;
7460;SDS011;6757;52.258;12.840;2022-10-18T04:28:33;8.40;;;3.40;;
7460;SDS011;6757;52.258;12.840;2022-10-18T04:31:05;8.07;;;3.28;;
7460;SDS011;6757;52.258;12.840;2022-10-18T04:33:32;9.60;;;3.25;;
7460;SDS011;6757;52.258;12.840;2022-10-18T04:35:58;9.70;;;3.30;;
7460;SDS011;6757;52.258;12.840;2022-10-18T04:38:25;8.73;;;3.28;;
7460;SDS011;6757;52.258;12.840;2022-10-18T04:40:52;9.90;;;3.47;;
7460;SDS011;6757;52.258;12.840;2022-10-18T04:43:19;9.30;;;3.67;;
7460;SDS011;6757;52.258;12.840;2022-10-18T04:45:46;6.88;;;2.97;;
7460;SDS011;6757;52.258;12.840;2022-10-18T04:48:16;7.68;;;3.13;;
7460;SDS011;6757;52.258;12.840;2022-10-18T04:50:45;7.85;;;3.30;;
7460;SDS011;6757;52.258;12.840;2022-10-18T04:53:13;7.18;;;3.30;;
7460;SDS011;6757;52.258;12.840;2022-10-18T04:55:42;7.40;;;3.17;;
7460;SDS011;6757;52.258;12.840;2022-10-18T04:58:10;8.80;;;3.10;;
7460;SDS011;6757;52.258;12.840;2022-10-18T05:00:38;8.35;;;3.33;;
7460;SDS011;6757;52.258;12.840;2022-10-18T05:03:06;7.13;;;2.92;;
7460;SDS011;6757;52.258;12.840;2022-10-18T05:05:34;9.70;;;3.15;;
7460;SDS011;6757;52.258;12.840;2022-10-18T05:08:03;10.10;;;3.67;;
7460;SDS011;6757;52.258;12.840;2022-10-18T05:10:30;9.77;;;3.40;;
7460;SDS011;6757;52.258;12.840;2022-10-18T05:12:57;9.15;;;3.17;;
7460;SDS011;6757;52.258;12.840;2022-10-18T05:15:24;8.73;;;3.63;;
7460;SDS011;6757;52.258;12.840;2022-10-18T05:17:51;9.80;;;3.90;;
7460;SDS011;6757;52.258;12.840;2022-10-18T05:20:18;9.25;;;3.45;;
7460;SDS011;6757;52.258;12.840;2022-10-18T05:22:46;9.52;;;3.03;;
7460;SDS011;6757;52.258;12.840;2022-10-18T05:25:13;10.52;;;3.30;;
7460;SDS011;6757;52.258;12.840;2022-10-18T05:27:40;9.25;;;3.25;;
7460;SDS011;6757;52.258;12.840;2022-10-18T05:30:07;11.05;;;3.28;;
7460;SDS011;6757;52.258;12.840;2022-10-18T05:32:35;10.25;;;3.70;;
7460;SDS011;6757;52.258;12.840;2022-10-18T05:35:01;10.10;;;3.90;;
7460;SDS011;6757;52.258;12.840;2022-10-18T05:37:29;11.27;;;3.63;;
7460;SDS011;6757;52.258;12.840;2022-10-18T05:39:57;8.20;;;3.30;;
7460;SDS011;6757;52.258;12.840;2022-10-18T05:42:24;9.10;;;3.38;;
7460;SDS011;6757;52.258;12.840;2022-10-18T05:44:51;7.60;;;3.17;;
7460;SDS011;6757;52.258;12.840;2022-10-18T05:47:18;6.40;;;2.97;;
7460;SDS011;6757;52.258;12.840;2022-10-18T05:49:44;9.15;;;3.25;;
7460;SDS011;6757;52.258;12.840;2022-10-18T05:52:12;10.32;;;3.47;;
7460;SDS011;6757;52.258;12.840;2022-10-18T05:54:48;9.23;;;3.10;;
7460;SDS011;6757;52.258;12.840;2022-10-18T05:57:17;8.40;;;3.40;;
7460;SDS011;6757;52.258;12.840;2022-10-18T05:59:44;8.40;;;3.28;;
7460;SDS011;6757;52.258;12.840;2022-10-18T06:02:11;8.93;;;3.65;;
7460;SDS011;6757;52.258;12.840;2022-10-18T06:04:38;9.02;;;3.63;;
7460;SDS011;6757;52.258;12.840;2022-10-18T06:07:06;9.85;;;3.25;;
7460;SDS011;6757;52.258;12.840;2022-10-18T06:09:34;9.07;;;3.85;;
7460;SDS011;6757;52.258;12.840;2022-10-18T06:12:01;7.50;;;3.00;;
7460;SDS011;6757;52.258;12.840;2022-10-18T06:14:30;7.95;;;3.47;;
7460;SDS011;6757;52.258;12.840;2022-10-18T06:16:57;11.73;;;4.13;;
7460;SDS011;6757;52.258;12.840;2022-10-18T06:19:24;8.77;;;3.20;;
7460;SDS011;6757;52.258;12.840;2022-10-18T06:21:51;10.55;;;3.63;;
7460;SDS011;6757;52.258;12.840;2022-10-18T06:24:18;9.98;;;3.47;;
7460;SDS011;6757;52.258;12.840;2022-10-18T06:26:45;9.63;;;3.30;;
7460;SDS011;6757;52.258;12.840;2022-10-18T06:29:13;9.05;;;3.28;;
7460;SDS011;6757;52.258;12.840;2022-10-18T06:31:41;10.57;;;3.58;;
7460;SDS011;6757;52.258;12.840;2022-10-18T06:34:08;9.65;;;3.55;;
7460;SDS011;6757;52.258;12.840;2022-10-18T06:36:35;9.77;;;3.38;;
7460;SDS011;6757;52.258;12.840;2022-10-18T06:39:02;10.85;;;3.75;;
7460;SDS011;6757;52.258;12.840;2022-10-18T06:41:29;10.70;;;3.65;;
7460;SDS011;6757;52.258;12.840;2022-10-18T06:43:56;10.00;;;3.28;;
7460;SDS011;6757;52.258;12.840;2022-10-18T06:46:27;9.98;;;3.72;;
7460;SDS011;6757;52.258;12.840;2022-10-18T06:48:55;7.88;;;3.08;;
7460;SDS011;6757;52.258;12.840;2022-10-18T06:51:22;8.75;;;3.30;;
7460;SDS011;6757;52.258;12.840;2022-10-18T06:53:49;9.05;;;3.40;;
7460;SDS011;6757;52.258;12.840;2022-10-18T06:56:16;8.90;;;3.17;;
7460;SDS011;6757;52.258;12.840;2022-10-18T06:58:42;9.48;;;3.50;;
7460;SDS011;6757;52.258;12.840;2022-10-18T07:01:10;6.10;;;2.95;;
7460;SDS011;6757;52.258;12.840;2022-10-18T07:03:40;9.25;;;3.58;;
7460;SDS011;6757;52.258;12.840;2022-10-18T07:06:10;9.27;;;3.53;;
7460;SDS011;6757;52.258;12.840;2022-10-18T07:11:05;7.38;;;3.17;;
7460;SDS011;6757;52.258;12.840;2022-10-18T07:13:34;11.07;;;4.05;;
7460;SDS011;6757;52.258;12.840;2022-10-18T07:16:02;7.22;;;3.22;;
7460;SDS011;6757;52.258;12.840;2022-10-18T07:18:31;9.65;;;3.78;;
7460;SDS011;6757;52.258;12.840;2022-10-18T07:21:00;12.50;;;3.53;;
7460;SDS011;6757;52.258;12.840;2022-10-18T07:23:30;8.82;;;3.60;;
7460;SDS011;6757;52.258;12.840;2022-10-18T07:25:58;7.68;;;2.88;;
7460;SDS011;6757;52.258;12.840;2022-10-18T07:28:26;9.43;;;3.25;;
7460;SDS011;6757;52.258;12.840;2022-10-18T07:30:53;7.65;;;2.97;;
7460;SDS011;6757;52.258;12.840;2022-10-18T07:33:20;8.40;;;3.55;;
7460;SDS011;6757;52.258;12.840;2022-10-18T07:35:48;5.88;;;2.80;;
7460;SDS011;6757;52.258;12.840;2022-10-18T07:38:15;6.50;;;2.67;;
7460;SDS011;6757;52.258;12.840;2022-10-18T07:40:43;8.93;;;3.28;;
7460;SDS011;6757;52.258;12.840;2022-10-18T07:43:10;12.57;;;3.50;;
7460;SDS011;6757;52.258;12.840;2022-10-18T07:45:37;8.52;;;3.30;;
7460;SDS011;6757;52.258;12.840;2022-10-18T07:48:04;7.90;;;2.60;;
7460;SDS011;6757;52.258;12.840;2022-10-18T07:50:31;10.35;;;3.38;;
7460;SDS011;6757;52.258;12.840;2022-10-18T07:52:58;9.35;;;3.15;;
7460;SDS011;6757;52.258;12.840;2022-10-18T07:55:25;9.10;;;3.40;;
7460;SDS011;6757;52.258;12.840;2022-10-18T07:57:53;6.40;;;3.10;;
7460;SDS011;6757;52.258;12.840;2022-10-18T08:00:20;8.38;;;3.28;;
7460;SDS011;6757;52.258;12.840;2022-10-18T08:02:47;8.32;;;2.85;;
7460;SDS011;6757;52.258;12.840;2022-10-18T08:05:14;10.70;;;3.53;;
7460;SDS011;6757;52.258;12.840;2022-10-18T08:07:41;9.90;;;3.60;;
7460;SDS011;6757;52.258;12.840;2022-10-18T08:10:08;8.93;;;3.50;;
7460;SDS011;6757;52.258;12.840;2022-10-18T08:12:35;9.23;;;3.38;;
7460;SDS011;6757;52.258;12.840;2022-10-18T08:15:03;7.13;;;2.90;;
7460;SDS011;6757;52.258;12.840;2022-10-18T08:17:31;10.48;;;3.22;;
7460;SDS011;6757;52.258;12.840;2022-10-18T08:19:58;9.07;;;3.55;;
7460;SDS011;6757;52.258;12.840;2022-10-18T08:22:25;8.55;;;3.28;;
7460;SDS011;6757;52.258;12.840;2022-10-18T08:24:52;7.90;;;3.15;;
7460;SDS011;6757;52.258;12.840;2022-10-18T08:27:19;6.10;;;2.80;;
7460;SDS011;6757;52.258;12.840;2022-10-18T08:29:46;9.80;;;3.13;;
7460;SDS011;6757;52.258;12.840;2022-10-18T08:32:14;9.15;;;3.65;;
7460;SDS011;6757;52.258;12.840;2022-10-18T08:34:41;8.85;;;3.53;;
7460;SDS011;6757;52.258;12.840;2022-10-18T08:37:08;9.02;;;3.65;;
7460;SDS011;6757;52.258;12.840;2022-10-18T08:39:35;9.43;;;3.45;;
7460;SDS011;6757;52.258;12.840;2022-10-18T08:42:09;11.43;;;3.75;;
7460;SDS011;6757;52.258;12.840;2022-10-18T08:44:47;9.02;;;3.15;;
7460;SDS011;6757;52.258;12.840;2022-10-18T08:47:17;9.63;;;3.40;;
7460;SDS011;6757;52.258;12.840;2022-10-18T08:49:47;10.07;;;3.35;;
7460;SDS011;6757;52.258;12.840;2022-10-18T08:52:21;8.10;;;3.20;;
7460;SDS011;6757;52.258;12.840;2022-10-18T08:54:58;8.10;;;3.30;;
7460;SDS011;6757;52.258;12.840;2022-10-18T08:57:28;8.20;;;3.15;;
7460;SDS011;6757;52.258;12.840;2022-10-18T08:59:56;10.35;;;3.53;;
7460;SDS011;6757;52.258;12.840;2022-10-18T09:02:29;11.20;;;3.33;;
7460;SDS011;6757;52.258;12.840;2022-10-18T09:05:09;7.50;;;2.92;;
7460;SDS011;6757;52.258;12.840;2022-10-18T09:07:58;8.15;;;3.13;;
7460;SDS011;6757;52.258;12.840;2022-10-18T09:10:42;7.35;;;3.30;;
7460;SDS011;6757;52.258;12.840;2022-10-18T09:16:23;7.47;;;2.78;;
7460;SDS011;6757;52.258;12.840;2022-10-18T09:19:04;7.45;;;2.88;;
7460;SDS011;6757;52.258;12.840;2022-10-18T09:21:41;8.88;;;2.97;;
7460;SDS011;6757;52.258;12.840;2022-10-18T09:24:18;7.32;;;2.78;;
7460;SDS011;6757;52.258;12.840;2022-10-18T09:26:56;7.82;;;3.17;;
7460;SDS011;6757;52.258;12.840;2022-10-18T09:29:31;8.05;;;2.97;;
7460;SDS011;6757;52.258;12.840;2022-10-18T09:32:21;7.03;;;2.78;;
7460;SDS011;6757;52.258;12.840;2022-10-18T09:34:57;7.57;;;3.20;;
7460;SDS011;6757;52.258;12.840;2022-10-18T09:37:30;6.65;;;3.05;;
7460;SDS011;6757;52.258;12.840;2022-10-18T09:40:02;6.22;;;2.53;;
7460;SDS011;6757;52.258;12.840;2022-10-18T09:42:38;6.35;;;2.60;;
7460;SDS011;6757;52.258;12.840;2022-10-18T09:45:13;6.78;;;2.30;;
7460;SDS011;6757;52.258;12.840;2022-10-18T09:47:51;6.75;;;2.28;;
7460;SDS011;6757;52.258;12.840;2022-10-18T09:50:31;5.65;;;2.55;;
7460;SDS011;6757;52.258;12.840;2022-10-18T09:53:05;7.65;;;2.70;;
7460;SDS011;6757;52.258;12.840;2022-10-18T09:55:41;2.30;;;1.70;;
7460;SDS011;6757;52.258;12.840;2022-10-18T09:58:24;1.65;;;1.50;;
7460;SDS011;6757;52.258;12.840;2022-10-18T10:00:53;6.15;;;2.45;;
7460;SDS011;6757;52.258;12.840;2022-10-18T10:03:21;5.43;;;2.30;;
7460;SDS011;6757;52.258;12.840;2022-10-18T10:05:49;4.57;;;2.28;;
7460;SDS011;6757;52.258;12.840;2022-10-18T10:08:31;5.47;;;2.40;;
7460;SDS011;6757;52.258;12.840;2022-10-18T10:10:59;3.33;;;1.65;;
7460;SDS011;6757;52.258;12.840;2022-10-18T10:13:26;3.88;;;1.55;;
7460;SDS011;6757;52.258;12.840;2022-10-18T10:15:53;5.38;;;2.45;;
7460;SDS011;6757;52.258;12.840;2022-10-18T10:18:23;3.50;;;1.92;;
7460;SDS011;6757;52.258;12.840;2022-10-18T10:20:56;5.38;;;2.08;;
7460;SDS011;6757;52.258;12.840;2022-10-18T10:23:25;5.47;;;1.90;;
7460;SDS011;6757;52.258;12.840;2022-10-18T10:25:55;3.88;;;1.83;;
7460;SDS011;6757;52.258;12.840;2022-10-18T10:28:25;3.58;;;2.03;;
7460;SDS011;6757;52.258;12.840;2022-10-18T10:30:56;4.05;;;1.95;;
7460;SDS011;6757;52.258;12.840;2022-10-18T10:33:44;2.22;;;1.70;;
7460;SDS011;6757;52.258;12.840;2022-10-18T10:36:16;4.55;;;1.90;;
7460;SDS011;6757;52.258;12.840;2022-10-18T10:38:45;5.53;;;2.13;;
7460;SDS011;6757;52.258;12.840;2022-10-18T10:41:27;3.50;;;1.80;;
7460;SDS011;6757;52.258;12.840;2022-10-18T10:43:55;4.38;;;2.20;;
7460;SDS011;6757;52.258;12.840;2022-10-18T10:46:22;4.57;;;2.00;;
7460;SDS011;6757;52.258;12.840;2022-10-18T10:48:58;6.00;;;2.10;;
7460;SDS011;6757;52.258;12.840;2022-10-18T10:51:29;5.07;;;2.40;;
7460;SDS011;6757;52.258;12.840;2022-10-18T10:53:59;5.07;;;2.03;;
7460;SDS011;6757;52.258;12.840;2022-10-18T10:56:29;5.07;;;1.90;;
7460;SDS011;6757;52.258;12.840;2022-10-18T10:59:00;9.70;;;2.38;;
7460;SDS011;6757;52.258;12.840;2022-10-18T11:01:34;8.50;;;2.50;;
7460;SDS011;6757;52.258;12.840;2022-10-18T11:04:02;3.97;;;2.10;;
7460;SDS011;6757;52.258;12.840;2022-10-18T11:06:54;4.78;;;2.13;;
7460;SDS011;6757;52.258;12.840;2022-10-18T11:09:31;6.05;;;2.10;;
7460;SDS011;6757;52.258;12.840;2022-10-18T11:12:25;3.80;;;1.85;;
7460;SDS011;6757;52.258;12.840;2022-10-18T11:15:01;5.25;;;2.22;;
7460;SDS011;6757;52.258;12.840;2022-10-18T11:17:38;7.43;;;2.53;;
7460;SDS011;6757;52.258;12.840;2022-10-18T11:22:43;4.65;;;2.22;;
7460;SDS011;6757;52.258;12.840;2022-10-18T11:25:26;5.22;;;2.25;;
7460;SDS011;6757;52.258;12.840;2022-10-18T11:28:26;3.17;;;2.03;;
7460;SDS011;6757;52.258;12.840;2022-10-18T11:31:10;3.50;;;1.67;;
7460;SDS011;6757;52.258;12.840;2022-10-18T11:33:57;4.97;;;2.17;;
7460;SDS011;6757;52.258;12.840;2022-10-18T11:36:40;6.70;;;2.78;;
7460;SDS011;6757;52.258;12.840;2022-10-18T11:39:21;3.72;;;1.98;;
7460;SDS011;6757;52.258;12.840;2022-10-18T11:41:57;5.15;;;2.38;;
7460;SDS011;6757;52.258;12.840;2022-10-18T11:44:37;5.03;;;2.20;;
7460;SDS011;6757;52.258;12.840;2022-10-18T11:47:14;7.65;;;2.78;;
7460;SDS011;6757;52.258;12.840;2022-10-18T11:49:53;7.93;;;2.65;;
7460;SDS011;6757;52.258;12.840;2022-10-18T11:52:32;4.57;;;2.35;;
7460;SDS011;6757;52.258;12.840;2022-10-18T11:55:17;6.55;;;2.60;;
7460;SDS011;6757;52.258;12.840;2022-10-18T11:58:04;5.03;;;2.47;;
7460;SDS011;6757;52.258;12.840;2022-10-18T12:00:49;7.45;;;2.88;;
7460;SDS011;6757;52.258;12.840;2022-10-18T12:03:22;6.53;;;2.78;;
7460;SDS011;6757;52.258;12.840;2022-10-18T12:06:00;4.53;;;2.15;;
7460;SDS011;6757;52.258;12.840;2022-10-18T12:08:31;7.50;;;2.72;;
7460;SDS011;6757;52.258;12.840;2022-10-18T12:11:07;7.43;;;2.53;;
7460;SDS011;6757;52.258;12.840;2022-10-18T12:13:42;5.88;;;2.55;;
7460;SDS011;6757;52.258;12.840;2022-10-18T12:16:13;5.05;;;2.17;;
7460;SDS011;6757;52.258;12.840;2022-10-18T12:18:46;8.60;;;2.88;;
7460;SDS011;6757;52.258;12.840;2022-10-18T12:21:19;7.97;;;2.58;;
7460;SDS011;6757;52.258;12.840;2022-10-18T12:23:50;9.27;;;3.25;;
7460;SDS011;6757;52.258;12.840;2022-10-18T12:26:22;5.40;;;2.50;;
7460;SDS011;6757;52.258;12.840;2022-10-18T12:28:53;6.78;;;2.58;;
7460;SDS011;6757;52.258;12.840;2022-10-18T12:31:29;6.35;;;2.78;;
7460;SDS011;6757;52.258;12.840;2022-10-18T12:34:03;7.93;;;2.97;;
7460;SDS011;6757;52.258;12.840;2022-10-18T12:39:43;5.95;;;2.45;;
7460;SDS011;6757;52.258;12.840;2022-10-18T12:42:18;5.25;;;2.63;;
7460;SDS011;6757;52.258;12.840;2022-10-18T12:44:47;6.35;;;2.67;;
7460;SDS011;6757;52.258;12.840;2022-10-18T12:47:25;6.28;;;2.60;;
7460;SDS011;6757;52.258;12.840;2022-10-18T12:49:55;5.93;;;2.50;;
7460;SDS011;6757;52.258;12.840;2022-10-18T12:52:24;5.07;;;2.30;;
7460;SDS011;6757;52.258;12.840;2022-10-18T12:55:00;5.13;;;2.53;;
7460;SDS011;6757;52.258;12.840;2022-10-18T12:58:20;5.97;;;2.53;;
7460;SDS011;6757;52.258;12.840;2022-10-18T13:00:54;8.65;;;2.90;;
7460;SDS011;6757;52.258;12.840;2022-10-18T13:06:21;6.10;;;2.83;;
7460;SDS011;6757;52.258;12.840;2022-10-18T13:11:45;4.22;;;2.42;;
7460;SDS011;6757;52.258;12.840;2022-10-18T13:14:25;7.47;;;3.03;;
7460;SDS011;6757;52.258;12.840;2022-10-18T13:17:25;6.95;;;2.70;;
7460;SDS011;6757;52.258;12.840;2022-10-18T13:19:59;8.77;;;3.00;;
7460;SDS011;6757;52.258;12.840;2022-10-18T13:22:47;5.85;;;2.67;;
7460;SDS011;6757;52.258;12.840;2022-10-18T13:25:26;8.93;;;3.25;;
7460;SDS011;6757;52.258;12.840;2022-10-18T13:28:00;7.97;;;2.80;;
7460;SDS011;6757;52.258;12.840;2022-10-18T13:30:47;7.40;;;3.22;;
7460;SDS011;6757;52.258;12.840;2022-10-18T13:33:29;7.53;;;2.63;;
7460;SDS011;6757;52.258;12.840;2022-10-18T13:35:59;8.57;;;3.50;;
7460;SDS011;6757;52.258;12.840;2022-10-18T13:41:13;9.55;;;3.20;;
7460;SDS011;6757;52.258;12.840;2022-10-18T13:56:00;8.85;;;3.33;;
7460;SDS011;6757;52.258;12.840;2022-10-18T13:58:58;9.55;;;3.45;;
7460;SDS011;6757;52.258;12.840;2022-10-18T14:01:58;8.52;;;3.38;;
7460;SDS011;6757;52.258;12.840;2022-10-18T14:04:45;8.05;;;3.03;;
7460;SDS011;6757;52.258;12.840;2022-10-18T14:07:30;7.75;;;3.05;;
7460;SDS011;6757;52.258;12.840;2022-10-18T14:09:58;9.60;;;4.05;;
7460;SDS011;6757;52.258;12.840;2022-10-18T14:12:27;8.32;;;2.83;;
7460;SDS011;6757;52.258;12.840;2022-10-18T14:15:02;9.48;;;3.15;;
7460;SDS011;6757;52.258;12.840;2022-10-18T14:17:38;7.15;;;3.13;;
7460;SDS011;6757;52.258;12.840;2022-10-18T14:22:47;7.15;;;2.78;;
7460;SDS011;6757;52.258;12.840;2022-10-18T14:25:20;9.73;;;3.00;;
7460;SDS011;6757;52.258;12.840;2022-10-18T14:28:01;9.30;;;3.13;;
7460;SDS011;6757;52.258;12.840;2022-10-18T14:30:37;7.82;;;2.90;;
7460;SDS011;6757;52.258;12.840;2022-10-18T14:33:22;7.03;;;3.10;;
7460;SDS011;6757;52.258;12.840;2022-10-18T14:35:59;7.80;;;3.20;;
7460;SDS011;6757;52.258;12.840;2022-10-18T14:38:33;7.05;;;2.90;;
7460;SDS011;6757;52.258;12.840;2022-10-18T14:41:06;6.32;;;2.88;;
7460;SDS011;6757;52.258;12.840;2022-10-18T14:43:40;7.57;;;3.03;;
7460;SDS011;6757;52.258;12.840;2022-10-18T14:46:08;5.65;;;2.53;;
7460;SDS011;6757;52.258;12.840;2022-10-18T14:48:50;7.50;;;2.83;;
7460;SDS011;6757;52.258;12.840;2022-10-18T14:51:18;6.65;;;2.80;;
7460;SDS011;6757;52.258;12.840;2022-10-18T14:53:47;6.05;;;2.78;;
7460;SDS011;6757;52.258;12.840;2022-10-18T14:59:04;6.80;;;2.97;;
7460;SDS011;6757;52.258;12.840;2022-10-18T15:01:39;6.05;;;2.67;;
7460;SDS011;6757;52.258;12.840;2022-10-18T15:04:07;9.30;;;3.28;;
7460;SDS011;6757;52.258;12.840;2022-10-18T15:06:40;7.55;;;2.83;;
7460;SDS011;6757;52.258;12.840;2022-10-18T15:09:10;6.85;;;2.85;;
7460;SDS011;6757;52.258;12.840;2022-10-18T15:11:38;7.50;;;2.78;;
7460;SDS011;6757;52.258;12.840;2022-10-18T15:14:06;8.23;;;3.15;;
7460;SDS011;6757;52.258;12.840;2022-10-18T15:16:42;8.70;;;3.38;;
7460;SDS011;6757;52.258;12.840;2022-10-18T15:19:23;10.38;;;3.10;;
7460;SDS011;6757;52.258;12.840;2022-10-18T15:22:03;10.60;;;3.75;;
7460;SDS011;6757;52.258;12.840;2022-10-18T15:24:35;7.95;;;3.35;;
7460;SDS011;6757;52.258;12.840;2022-10-18T15:27:12;8.02;;;2.85;;
7460;SDS011;6757;52.258;12.840;2022-10-18T15:29:47;6.97;;;3.13;;
7460;SDS011;6757;52.258;12.840;2022-10-18T15:32:16;8.90;;;3.03;;
7460;SDS011;6757;52.258;12.840;2022-10-18T15:34:50;9.80;;;3.45;;
7460;SDS011;6757;52.258;12.840;2022-10-18T15:37:29;6.97;;;3.25;;
7460;SDS011;6757;52.258;12.840;2022-10-18T15:46:04;8.70;;;2.92;;
7460;SDS011;6757;52.258;12.840;2022-10-18T15:48:32;8.30;;;3.10;;
7460;SDS011;6757;52.258;12.840;2022-10-18T15:51:02;5.10;;;2.67;;
7460;SDS011;6757;52.258;12.840;2022-10-18T15:53:32;8.43;;;2.88;;
7460;SDS011;6757;52.258;12.840;2022-10-18T15:56:10;8.18;;;3.20;;
7460;SDS011;6757;52.258;12.840;2022-10-18T15:59:05;6.40;;;2.83;;
7460;SDS011;6757;52.258;12.840;2022-10-18T16:01:57;8.70;;;3.35;;
7460;SDS011;6757;52.258;12.840;2022-10-18T16:04:47;7.50;;;2.95;;
7460;SDS011;6757;52.258;12.840;2022-10-18T16:07:20;7.20;;;2.90;;
7460;SDS011;6757;52.258;12.840;2022-10-18T16:09:58;6.63;;;2.92;;
7460;SDS011;6757;52.258;12.840;2022-10-18T16:12:40;8.35;;;2.90;;
7460;SDS011;6757;52.258;12.840;2022-10-18T16:15:17;7.68;;;3.25;;
7460;SDS011;6757;52.258;12.840;2022-10-18T16:17:58;6.68;;;2.60;;
7460;SDS011;6757;52.258;12.840;2022-10-18T16:20:37;6.47;;;2.58;;